Time;durP1;ratioP1;P1;durP2;ratioP2;P2;SDS_P1;SDS_P2;PMS_P1;PMS_P2;Temp;Humidity;BMP_temperature;BMP_pressure;BME280_temperature;BME280_humidity;BME280_pressure;Samples;Min_cycle;Max_cycle;Signal;HPM_P1;HPM_P2
2022/04/10 00:01:17;;;;;;;;;12.00;10.75;;;;;10.43;44.23;101591.59;5172263;27;45072;-73
2022/04/10 00:03:42;;;;;;;;;9.75;7.75;;;;;10.07;44.93;101537.56;5173958;27;45320;-74
2022/04/10 00:06:08;;;;;;;;;12.75;11.50;;;;;10.42;44.20;101591.53;5176228;27;44887;-75
2022/04/10 00:08:33;;;;;;;;;12.25;12.25;;;;;10.46;44.66;101598.81;5175348;27;45386;-73
2022/04/10 00:10:58;;;;;;;;;14.25;13.50;;;;;10.47;44.00;101596.19;5154312;27;44976;-73
2022/04/10 00:13:24;;;;;;;;;10.25;7.50;;;;;10.02;43.81;101524.03;5173544;27;45405;-75
2022/04/10 00:15:49;;;;;;;;;6.25;4.25;;;;;10.39;44.48;101586.97;5173750;27;45284;-73
2022/04/10 00:18:14;;;;;;;;;6.75;6.50;;;;;10.26;44.04;101549.88;5165445;27;45365;-71
2022/04/10 00:20:40;;;;;;;;;8.00;5.50;;;;;10.36;44.13;101577.91;5169228;27;45265;-73
2022/04/10 00:23:05;;;;;;;;;6.75;6.75;;;;;10.39;44.19;101586.97;5173186;27;44851;-73
2022/04/10 00:25:31;;;;;;;;;11.50;10.00;;;;;10.19;43.82;101547.81;5173157;27;45455;-73
2022/04/10 00:27:57;;;;;;;;;12.00;12.00;;;;;10.14;44.08;101561.88;5172329;27;45530;-74
2022/04/10 00:30:23;;;;;;;;;15.75;14.50;;;;;10.18;44.45;101562.00;5171963;27;45140;-73
2022/04/10 00:32:49;;;;;;;;;16.25;12.50;;;;;10.19;44.27;101569.19;5172679;27;45153;-71
2022/04/10 00:35:14;;;;;;;;;10.75;8.25;;;;;10.07;44.87;101554.47;5172851;27;45170;-72
2022/04/10 00:37:40;;;;;;;;;36.50;32.25;;;;;10.15;44.40;101584.19;5173292;27;45152;-73
2022/04/10 00:40:07;;;;;;;;;23.00;20.50;;;;;10.08;44.97;101582.09;5155624;27;45112;-73
2022/04/10 00:42:37;;;;;;;;;13.00;11.75;;;;;10.09;44.71;101587.50;5154098;27;45133;-74
2022/04/10 00:45:05;;;;;;;;;10.50;8.75;;;;;9.70;44.59;101525.34;5174051;27;45299;-73
2022/04/10 00:47:31;;;;;;;;;12.75;9.25;;;;;9.91;45.37;101557.34;5173077;27;46518;-74
2022/04/10 00:49:58;;;;;;;;;11.75;10.50;;;;;9.85;44.82;101535.75;5174115;27;45105;-74
2022/04/10 00:52:26;;;;;;;;;12.50;10.25;;;;;10.03;45.30;101559.63;5173517;27;44946;-73
2022/04/10 00:54:52;;;;;;;;;9.25;7.25;;;;;9.95;44.95;101537.97;5171964;27;46118;-72
2022/04/10 00:57:18;;;;;;;;;9.75;9.75;;;;;10.16;45.09;101583.31;5175218;27;45343;-73
2022/04/10 00:59:43;;;;;;;;;11.25;8.25;;;;;9.93;45.45;101553.91;5175306;27;45123;-73
2022/04/10 01:02:09;;;;;;;;;13.50;13.50;;;;;9.94;45.37;101560.16;5175036;27;45094;-72
2022/04/10 01:04:34;;;;;;;;;16.00;14.75;;;;;10.11;45.85;101592.91;5175263;27;45085;-74
2022/04/10 01:07:00;;;;;;;;;14.25;14.00;;;;;10.10;46.72;101583.09;5174929;27;45424;-74
2022/04/10 01:09:27;;;;;;;;;16.25;12.50;;;;;10.07;46.11;101582.94;5175158;27;44927;-75
2022/04/10 01:11:53;;;;;;;;;18.75;15.25;;;;;9.82;46.97;101549.88;5166619;27;45305;-75
2022/04/10 01:14:20;;;;;;;;;18.25;14.75;;;;;10.02;46.77;101592.53;5175519;27;45147;-74
2022/04/10 01:16:47;;;;;;;;;16.75;16.75;;;;;9.82;46.87;101568.56;5174355;27;45182;-73
2022/04/10 01:19:13;;;;;;;;;11.25;11.25;;;;;9.95;46.38;101594.03;5174607;27;45198;-72
2022/04/10 01:21:42;;;;;;;;;20.75;17.00;;;;;9.56;47.23;101517.66;5174630;27;45124;-75
2022/04/10 01:24:09;;;;;;;;;16.75;16.75;;;;;9.81;47.12;101563.16;5153326;27;45274;-74
2022/04/10 01:26:34;;;;;;;;;13.25;13.00;;;;;9.38;46.59;101496.44;5173986;27;45223;-73
2022/04/10 01:29:04;;;;;;;;;14.75;13.00;;;;;9.70;46.91;101544.00;5151566;27;45045;-74
2022/04/10 01:31:33;;;;;;;;;12.75;11.75;;;;;9.71;46.12;101554.75;5174293;27;45193;-74
2022/04/10 01:34:02;;;;;;;;;14.50;12.50;;;;;9.58;46.65;101537.28;5173726;27;45258;-73
2022/04/10 01:36:30;;;;;;;;;15.50;13.00;;;;;9.81;46.58;101582.75;5158056;27;46360;-73
2022/04/10 01:38:57;;;;;;;;;20.25;17.00;;;;;9.65;46.19;101554.50;5178201;27;45025;-73
2022/04/10 01:41:27;;;;;;;;;15.75;12.50;;;;;9.84;46.77;101581.97;5178535;27;45133;-73
2022/04/10 01:43:53;;;;;;;;;11.00;9.75;;;;;9.75;46.42;101569.13;5178421;27;45065;-72
2022/04/10 01:46:20;;;;;;;;;10.00;8.25;;;;;9.84;45.92;101573.97;5177101;27;45222;-72
2022/04/10 01:48:46;;;;;;;;;13.00;11.25;;;;;9.77;46.52;101567.47;5177847;27;45022;-72
2022/04/10 01:51:12;;;;;;;;;16.25;14.50;;;;;9.57;46.20;101540.84;5178005;27;45089;-74
2022/04/10 01:53:38;;;;;;;;;12.25;11.50;;;;;9.71;45.63;101560.09;5178233;27;44923;-74
2022/04/10 01:56:04;;;;;;;;;9.75;7.00;;;;;9.70;45.84;101570.69;5178499;27;45232;-73
2022/04/10 01:58:31;;;;;;;;;12.00;11.00;;;;;9.70;45.81;101566.28;5170260;27;45063;-74
2022/04/10 02:00:56;;;;;;;;;12.75;11.75;;;;;9.68;45.60;101562.63;5178520;27;45169;-73
2022/04/10 02:03:22;;;;;;;;;15.50;11.50;;;;;9.66;45.57;101574.09;5178288;27;44988;-73
2022/04/10 02:05:47;;;;;;;;;10.25;9.50;;;;;9.39;45.49;101535.59;5178219;27;45555;-71
2022/04/10 02:08:15;;;;;;;;;13.75;11.00;;;;;9.63;45.39;101568.63;5178399;27;45207;-71
2022/04/10 02:10:41;;;;;;;;;10.00;10.00;;;;;9.60;45.71;101561.38;5169734;27;45156;-71
2022/04/10 02:13:09;;;;;;;;;9.75;9.25;;;;;9.61;45.66;101563.22;5176138;27;45198;-72
2022/04/10 02:15:36;;;;;;;;;14.75;11.00;;;;;9.61;45.59;101564.97;5177419;27;45351;-73
2022/04/10 02:18:02;;;;;;;;;13.00;11.75;;;;;9.46;46.11;101525.22;5175977;27;45488;-74
2022/04/10 02:20:28;;;;;;;;;14.00;11.25;;;;;9.46;45.71;101530.56;5176424;27;45046;-73
2022/04/10 02:22:53;;;;;;;;;14.25;10.50;;;;;9.65;45.78;101569.59;5176185;27;45307;-74
2022/04/10 02:25:19;;;;;;;;;14.25;11.25;;;;;9.59;46.14;101575.59;5172384;27;45936;-71
2022/04/10 02:27:44;;;;;;;;;15.25;11.25;;;;;9.36;46.68;101532.81;5177147;27;45184;-72
2022/04/10 02:30:10;;;;;;;;;12.25;10.50;;;;;9.11;45.83;101487.25;5158111;27;45045;-75
2022/04/10 02:32:36;;;;;;;;;10.00;10.00;;;;;9.45;45.48;101536.72;5177331;27;45160;-73
2022/04/10 02:35:01;;;;;;;;;12.25;10.50;;;;;9.55;46.11;101563.88;5177413;27;45610;-72
2022/04/10 02:37:26;;;;;;;;;14.50;13.00;;;;;9.62;45.81;101573.06;5177245;27;45006;-74
2022/04/10 02:39:52;;;;;;;;;18.50;14.00;;;;;9.25;45.54;101506.50;5177645;27;45422;-72
2022/04/10 02:42:17;;;;;;;;;11.00;10.25;;;;;9.64;45.34;101575.78;5177638;27;45109;-72
2022/04/10 02:44:42;;;;;;;;;14.00;11.50;;;;;9.64;46.16;101582.03;5175938;27;45426;-73
2022/04/10 02:47:08;;;;;;;;;16.50;13.25;;;;;9.59;46.09;101573.81;5157670;27;45419;-74
2022/04/10 02:49:33;;;;;;;;;10.50;10.50;;;;;9.59;45.85;101586.25;5158926;27;45331;-73
2022/04/10 02:51:58;;;;;;;;;11.75;11.75;;;;;9.12;46.03;101486.38;5164682;27;45306;-70
2022/04/10 02:54:24;;;;;;;;;13.50;12.00;;;;;9.61;45.28;101578.31;5158443;27;46834;-73
2022/04/10 02:56:49;;;;;;;;;11.25;6.75;;;;;9.55;45.94;101574.53;5158404;27;45538;-74
2022/04/10 02:59:14;;;;;;;;;5.75;5.00;;;;;9.52;45.43;101577.06;5158697;27;45339;-75
2022/04/10 03:01:40;;;;;;;;;6.75;6.75;;;;;9.38;45.61;101547.09;5159195;27;45474;-74
2022/04/10 03:04:06;;;;;;;;;10.00;10.00;;;;;9.43;45.62;101557.09;5175197;27;45244;-72
2022/04/10 03:06:34;;;;;;;;;9.25;7.75;;;;;9.29;45.96;101533.38;5159607;27;45582;-71
2022/04/10 03:08:59;;;;;;;;;13.75;10.75;;;;;9.52;45.74;101573.47;5161953;27;45393;-71
2022/04/10 03:11:25;;;;;;;;;14.00;14.00;;;;;9.42;46.42;101556.19;5163165;27;45468;-71
2022/04/10 03:13:51;;;;;;;;;19.50;19.00;;;;;9.50;47.50;101580.50;5163980;27;45415;-71
2022/04/10 03:16:16;;;;;;;;;19.50;19.25;;;;;9.48;48.01;101580.44;5158133;27;45539;-74
2022/04/10 03:18:42;;;;;;;;;16.50;15.50;;;;;9.44;48.19;101582.88;5156467;27;45720;-73
2022/04/10 03:21:08;;;;;;;;;19.00;14.25;;;;;9.17;48.23;101539.09;5169277;27;45318;-72
2022/04/10 03:23:34;;;;;;;;;19.00;18.50;;;;;9.46;47.81;101576.78;5167199;27;45563;-72
2022/04/10 03:25:59;;;;;;;;;17.75;16.75;;;;;9.23;47.57;101543.78;5169411;27;45079;-72
2022/04/10 03:28:25;;;;;;;;;19.75;17.75;;;;;9.47;48.55;101585.69;5158734;27;45443;-73
2022/04/10 03:30:50;;;;;;;;;18.75;16.00;;;;;9.46;48.55;101583.91;5159058;27;45419;-72
2022/04/10 03:33:15;;;;;;;;;20.00;17.25;;;;;9.33;47.92;101570.00;5157742;27;45461;-71
2022/04/10 03:35:41;;;;;;;;;17.75;16.75;;;;;9.47;48.54;101593.69;5138991;27;45355;-73
2022/04/10 03:38:06;;;;;;;;;22.00;15.25;;;;;9.40;48.09;101577.44;5158065;27;45508;-71
2022/04/10 03:40:32;;;;;;;;;17.75;16.75;;;;;9.17;47.54;101538.16;5159298;27;45533;-71
2022/04/10 03:42:57;;;;;;;;;21.00;18.75;;;;;9.28;47.96;101551.97;5157940;27;46008;-72
2022/04/10 03:45:22;;;;;;;;;19.50;17.25;;;;;9.30;48.05;101559.19;5156902;27;45491;-73
2022/04/10 03:47:48;;;;;;;;;16.50;16.25;;;;;9.22;48.61;101549.94;5138904;27;45928;-73
2022/04/10 03:50:14;;;;;;;;;21.00;17.50;;;;;9.41;48.50;101592.59;5160324;27;45577;-73
2022/04/10 03:52:39;;;;;;;;;21.50;18.00;;;;;9.41;48.67;101592.59;5154671;27;47202;-73
2022/04/10 03:55:05;;;;;;;;;19.50;16.25;;;;;9.14;48.78;101562.00;5163155;27;45262;-75
2022/04/10 03:57:31;;;;;;;;;13.50;13.50;;;;;9.32;48.72;101589.53;5167191;27;45437;-74
2022/04/10 03:59:56;;;;;;;;;24.25;18.50;;;;;9.28;48.59;101590.22;5174128;27;45455;-71
2022/04/10 04:02:22;;;;;;;;;21.25;18.00;;;;;9.17;48.85;101581.75;5168389;27;46098;-73
2022/04/10 04:04:51;;;;;;;;;20.75;14.75;;;;;9.16;48.08;101592.34;5173400;27;45108;-71
2022/04/10 04:07:17;;;;;;;;;16.50;14.50;;;;;9.12;48.11;101577.03;5171921;27;45295;-73
2022/04/10 04:09:42;;;;;;;;;20.50;16.00;;;;;9.17;48.97;101595.09;5168670;27;45350;-71
2022/04/10 04:12:08;;;;;;;;;17.50;17.00;;;;;9.18;48.64;101588.88;5165980;27;45592;-72
2022/04/10 04:14:37;;;;;;;;;13.75;13.75;;;;;9.20;49.19;101584.53;5144425;27;45250;-74
2022/04/10 04:17:03;;;;;;;;;14.00;10.25;;;;;9.04;48.97;101550.94;5164907;27;45535;-73
2022/04/10 04:19:28;;;;;;;;;17.50;16.25;;;;;9.23;48.72;101578.44;5157791;27;45597;-73
2022/04/10 04:21:54;;;;;;;;;21.25;18.25;;;;;9.19;48.54;101573.81;5163095;27;46300;-71
2022/04/10 04:24:19;;;;;;;;;27.75;24.75;;;;;9.20;51.29;101581.84;5173492;27;45096;-74
2022/04/10 04:26:44;;;;;;;;;31.75;23.50;;;;;8.67;50.98;101501.28;5159097;27;45382;-73
2022/04/10 04:29:10;;;;;;;;;24.50;21.00;;;;;8.65;51.75;101494.97;5158157;27;45310;-74
2022/04/10 04:31:35;;;;;;;;;24.50;24.00;;;;;9.19;51.92;101590.72;5164620;27;45451;-73
2022/04/10 04:34:00;;;;;;;;;32.50;24.25;;;;;9.11;51.54;101584.13;5157358;27;45280;-73
2022/04/10 04:36:26;;;;;;;;;31.75;24.00;;;;;9.17;52.21;101594.13;5157786;27;45364;-72
2022/04/10 04:38:52;;;;;;;;;48.25;39.25;;;;;8.89;52.46;101547.56;5158415;27;45383;-73
2022/04/10 04:41:18;;;;;;;;;34.25;28.25;;;;;9.20;51.74;101604.94;5157172;27;45949;-74
2022/04/10 04:43:44;;;;;;;;;36.25;27.75;;;;;8.83;51.96;101545.53;5156708;27;45394;-72
2022/04/10 04:46:09;;;;;;;;;29.00;25.25;;;;;8.89;52.15;101568.88;5161519;27;45387;-73
2022/04/10 04:48:34;;;;;;;;;30.00;25.75;;;;;9.11;52.73;101616.13;5174605;27;45035;-73
2022/04/10 04:51:01;;;;;;;;;33.25;26.75;;;;;9.01;52.73;101606.78;5174684;27;50427;-71
2022/04/10 04:53:26;;;;;;;;;40.25;29.25;;;;;8.85;53.30;101572.25;5173687;27;45157;-71
2022/04/10 04:55:52;;;;;;;;;33.50;27.50;;;;;8.77;53.13;101569.22;5174846;27;45033;-73
2022/04/10 04:58:17;;;;;;;;;30.50;22.25;;;;;8.81;52.80;101597.84;5175281;27;45431;-71
2022/04/10 05:00:42;;;;;;;;;24.50;21.00;;;;;8.61;52.30;101556.97;5173412;27;45062;-71
2022/04/10 05:03:08;;;;;;;;;36.25;29.75;;;;;9.08;53.01;101637.28;5174249;27;45079;-72
2022/04/10 05:05:33;;;;;;;;;31.75;26.75;;;;;9.07;52.68;101639.88;5170897;27;45118;-74
2022/04/10 05:07:58;;;;;;;;;31.50;27.75;;;;;8.91;52.50;101630.25;5175900;27;45086;-72
2022/04/10 05:10:24;;;;;;;;;29.25;25.25;;;;;8.86;52.69;101608.75;5175356;27;45488;-75
2022/04/10 05:12:49;;;;;;;;;32.50;25.50;;;;;8.85;53.18;101609.56;5176657;27;44907;-74
2022/04/10 05:15:14;;;;;;;;;28.50;25.00;;;;;9.01;53.54;101635.19;5177034;27;45733;-73
2022/04/10 05:17:40;;;;;;;;;31.00;29.50;;;;;8.94;53.07;101625.06;5176364;27;45340;-73
2022/04/10 05:20:07;;;;;;;;;31.00;27.00;;;;;8.84;53.26;101611.31;5175901;27;45394;-74
2022/04/10 05:22:32;;;;;;;;;28.75;25.00;;;;;8.85;53.47;101617.56;5157999;27;45385;-75
2022/04/10 05:24:58;;;;;;;;;27.00;24.25;;;;;8.87;53.73;101602.53;5155745;27;45136;-71
2022/04/10 05:27:24;;;;;;;;;27.25;26.75;;;;;9.07;53.19;101637.22;5178338;27;45083;-75
2022/04/10 05:29:49;;;;;;;;;39.50;32.00;;;;;9.02;53.88;101642.34;5176629;27;45258;-73
2022/04/10 05:32:16;;;;;;;;;32.25;27.75;;;;;8.77;53.23;101606.53;5177049;27;45106;-75
2022/04/10 05:34:41;;;;;;;;;30.75;25.25;;;;;8.52;54.20;101575.16;5158173;27;45295;-73
2022/04/10 05:37:07;;;;;;;;;36.50;28.00;;;;;8.76;53.50;101619.78;5177414;27;45184;-75
2022/04/10 05:39:32;;;;;;;;;41.00;28.50;;;;;8.87;54.19;101639.84;5178683;27;45191;-74
2022/04/10 05:41:57;;;;;;;;;29.75;27.00;;;;;8.62;53.47;101603.16;5159424;27;45073;-73
2022/04/10 05:44:23;;;;;;;;;34.25;25.75;;;;;8.96;53.91;101664.28;5173381;27;44881;-73
2022/04/10 05:46:48;;;;;;;;;27.50;25.50;;;;;8.97;52.76;101665.19;5176997;27;45380;-73
2022/04/10 05:49:14;;;;;;;;;33.75;29.75;;;;;8.97;52.52;101666.09;5174927;27;45065;-73
2022/04/10 05:51:39;;;;;;;;;33.00;27.50;;;;;8.76;52.89;101623.38;5174634;27;45403;-73
2022/04/10 05:54:05;;;;;;;;;28.00;21.75;;;;;9.01;53.34;101668.09;5174156;27;45389;-73
2022/04/10 05:56:30;;;;;;;;;35.00;28.00;;;;;9.04;53.77;101669.97;5173817;27;45277;-75
2022/04/10 05:58:55;;;;;;;;;30.25;27.00;;;;;9.06;53.24;101672.69;5177143;27;45541;-75
2022/04/10 06:01:22;;;;;;;;;39.75;26.75;;;;;9.03;52.47;101679.72;5173915;27;45190;-71
2022/04/10 06:03:48;;;;;;;;;30.25;28.25;;;;;8.77;52.98;101637.59;5165557;27;45397;-73
2022/04/10 06:06:13;;;;;;;;;42.25;31.25;;;;;8.92;52.92;101656.97;5161255;27;45387;-74
2022/04/10 06:08:39;;;;;;;;;27.00;25.75;;;;;9.00;52.44;101674.25;5158878;27;46217;-70
2022/04/10 06:11:04;;;;;;;;;32.75;27.00;;;;;8.75;52.30;101633.97;5158993;27;45452;-73
2022/04/10 06:13:29;;;;;;;;;34.00;30.00;;;;;8.62;52.56;101629.78;5158291;27;45416;-72
2022/04/10 06:15:55;;;;;;;;;32.75;27.75;;;;;8.73;52.93;101659.59;5172903;27;45008;-72
2022/04/10 06:18:20;;;;;;;;;27.25;25.50;;;;;8.96;52.02;101685.63;5161017;27;45301;-73
2022/04/10 06:20:45;;;;;;;;;26.50;22.00;;;;;9.06;52.22;101691.38;5167768;27;45487;-72
2022/04/10 06:23:12;;;;;;;;;33.50;26.75;;;;;8.93;52.42;101656.16;5155726;27;44967;-73
2022/04/10 06:25:37;;;;;;;;;28.25;25.75;;;;;8.73;52.26;101623.22;5178140;27;45185;-72
2022/04/10 06:28:03;;;;;;;;;33.25;31.25;;;;;9.10;51.98;101685.34;5176837;27;45535;-72
2022/04/10 06:30:28;;;;;;;;;29.00;28.50;;;;;8.97;51.97;101659.88;5152498;27;45377;-73
2022/04/10 06:32:54;;;;;;;;;28.00;28.00;;;;;9.13;52.50;101680.16;5166030;27;45788;-73
2022/04/10 06:35:19;;;;;;;;;32.00;26.50;;;;;8.88;51.83;101638.13;5177155;27;45659;-71
2022/04/10 06:37:45;;;;;;;;;26.25;22.00;;;;;9.12;51.53;101681.00;5176322;27;45963;-74
2022/04/10 06:40:10;;;;;;;;;24.00;20.00;;;;;8.89;51.66;101642.59;5176986;27;45694;-71
2022/04/10 06:42:36;;;;;;;;;28.00;24.75;;;;;9.12;51.08;101681.00;5172913;27;45187;-73
2022/04/10 06:45:01;;;;;;;;;34.50;32.75;;;;;8.92;51.70;101632.97;5175252;27;45114;-74
2022/04/10 06:47:28;;;;;;;;;27.00;26.00;;;;;9.04;52.02;101649.56;5173085;27;45628;-73
2022/04/10 06:49:54;;;;;;;;;31.00;24.25;;;;;8.81;51.34;101602.25;5174883;27;44964;-74
2022/04/10 06:52:19;;;;;;;;;31.50;26.75;;;;;9.26;51.43;101673.66;5155403;27;45138;-71
2022/04/10 06:54:44;;;;;;;;;28.75;26.50;;;;;9.35;51.14;101682.97;5174928;27;45310;-70
2022/04/10 06:57:10;;;;;;;;;33.75;28.75;;;;;9.39;50.95;101679.63;5173514;27;45097;-71
2022/04/10 06:59:35;;;;;;;;;28.25;24.00;;;;;9.43;50.23;101680.69;5175331;27;45024;-71
2022/04/10 07:02:01;;;;;;;;;27.50;25.00;;;;;9.41;50.04;101680.59;5168338;27;45389;-72
2022/04/10 07:04:26;;;;;;;;;32.00;24.25;;;;;9.41;49.25;101669.94;5171082;27;45671;-72
2022/04/10 07:06:52;;;;;;;;;21.75;21.75;;;;;9.25;49.93;101631.84;5169455;27;46068;-72
2022/04/10 07:09:18;;;;;;;;;27.25;24.50;;;;;9.55;49.43;101680.31;5163319;27;45503;-73
2022/04/10 07:11:45;;;;;;;;;28.00;24.00;;;;;9.63;49.88;101683.34;5168098;27;45396;-72
2022/04/10 07:14:10;;;;;;;;;29.00;26.25;;;;;9.70;49.21;101674.75;5169309;27;45583;-72
2022/04/10 07:16:36;;;;;;;;;25.25;22.00;;;;;9.68;48.25;101660.44;5169889;27;46276;-74
2022/04/10 07:19:01;;;;;;;;;19.25;16.00;;;;;9.62;48.22;101655.75;5177305;27;45034;-73
2022/04/10 07:24:10;;;;;;;;;18.00;18.00;;;;;9.40;48.03;101604.13;5176863;27;45109;-73
2022/04/10 07:26:36;;;;;;;;;16.75;16.00;;;;;9.90;47.85;101664.97;5176694;27;45284;-73
2022/04/10 07:29:01;;;;;;;;;20.00;16.75;;;;;9.64;47.82;101616.72;5177006;27;45627;-72
2022/04/10 07:31:27;;;;;;;;;20.75;15.25;;;;;9.84;46.80;101640.69;5172105;27;45531;-72
2022/04/10 07:33:52;;;;;;;;;16.50;13.50;;;;;9.84;46.61;101635.34;5175510;27;44896;-71
2022/04/10 07:36:17;;;;;;;;;17.25;15.50;;;;;9.99;46.64;101645.78;5176612;27;45813;-71
2022/04/10 07:38:43;;;;;;;;;19.75;15.75;;;;;10.25;45.64;101676.28;5175158;27;46921;-71
2022/04/10 07:41:08;;;;;;;;;10.75;7.00;;;;;10.30;44.86;101682.72;5176715;27;45187;-73
2022/04/10 07:43:34;;;;;;;;;13.25;13.00;;;;;10.37;45.21;101682.16;5176384;27;45159;-73
2022/04/10 07:48:46;;;;;;;;;14.75;11.75;;;;;10.32;44.77;101652.56;5174994;27;45080;-74
2022/04/10 07:51:11;;;;;;;;;10.50;10.00;;;;;10.58;43.87;101678.56;5172949;27;44968;-70
2022/04/10 07:53:36;;;;;;;;;8.25;6.50;;;;;10.39;42.58;101639.47;5174006;27;45011;-72
2022/04/10 07:56:02;;;;;;;;;13.25;10.75;;;;;9.88;42.83;101555.50;5172653;27;45198;-69
2022/04/10 07:58:27;;;;;;;;;10.00;9.50;;;;;10.24;42.97;101637.94;5172798;27;45295;-71
2022/04/10 08:00:53;;;;;;;;;12.25;10.75;;;;;10.47;42.73;101644.28;5173613;27;44994;-70
2022/04/10 08:03:18;;;;;;;;;9.50;9.50;;;;;10.70;43.17;101681.75;5173252;27;45344;-74
2022/04/10 08:05:44;;;;;;;;;8.25;8.25;;;;;10.76;42.57;101673.06;5173448;27;45888;-72
2022/04/10 08:08:12;;;;;;;;;9.75;7.50;;;;;10.61;41.77;101631.50;5172793;27;45171;-71
2022/04/10 08:10:38;;;;;;;;;10.75;4.75;;;;;10.79;42.24;101662.47;5173172;27;45161;-71
2022/04/10 08:13:04;;;;;;;;;10.00;6.00;;;;;10.84;41.32;101672.53;5172548;27;45346;-70
2022/04/10 08:15:30;;;;;;;;;11.75;7.00;;;;;10.74;41.66;101654.31;5173720;27;45376;-71
2022/04/10 08:17:56;;;;;;;;;6.75;6.75;;;;;10.94;41.33;101683.56;5175600;27;45184;-71
2022/04/10 08:20:23;;;;;;;;;11.00;9.25;;;;;10.51;41.63;101619.53;5175895;27;45238;-71
2022/04/10 08:22:50;;;;;;;;;10.00;8.00;;;;;10.57;41.20;101625.97;5172961;27;45256;-71
2022/04/10 08:25:23;;;;;;;;;3.00;3.00;;;;;10.80;40.74;101672.34;5172479;27;45924;-72
2022/04/10 08:27:49;;;;;;;;;5.75;5.00;;;;;10.87;41.11;101677.06;5175080;27;45003;-73
2022/04/10 08:30:14;;;;;;;;;8.25;6.75;;;;;10.89;41.01;101664.69;5175350;27;45155;-70
2022/04/10 08:32:42;;;;;;;;;6.25;4.75;;;;;10.97;40.49;101678.34;5173769;27;45492;-70
2022/04/10 08:35:08;;;;;;;;;7.50;4.00;;;;;10.79;40.33;101642.03;5172858;27;46077;-71
2022/04/10 08:37:34;;;;;;;;;6.25;6.25;;;;;11.14;40.41;101677.25;5172572;27;45140;-69
2022/04/10 08:40:00;;;;;;;;;8.25;8.00;;;;;11.26;40.69;101676.81;5153289;27;45069;-71
2022/04/10 08:42:26;;;;;;;;;10.75;8.00;;;;;11.34;40.27;101670.00;5153637;27;45058;-71
2022/04/10 08:44:54;;;;;;;;;7.00;7.00;;;;;11.44;40.17;101677.50;5170797;27;45761;-73
2022/04/10 08:47:21;;;;;;;;;13.00;9.00;;;;;11.39;40.08;101660.38;5171865;27;45279;-71
2022/04/10 08:49:50;;;;;;;;;5.25;5.25;;;;;11.28;39.57;101636.75;5153521;27;45137;-74
2022/04/10 08:52:17;;;;;;;;;5.75;5.75;;;;;11.59;39.61;101676.28;5170224;27;45193;-71
2022/04/10 08:54:47;;;;;;;;;6.00;6.00;;;;;11.61;39.30;101672.81;5175049;27;45621;-72
2022/04/10 08:57:13;;;;;;;;;8.75;8.75;;;;;11.58;39.92;101663.72;5174526;27;45046;-70
2022/04/10 08:59:39;;;;;;;;;12.00;11.00;;;;;11.73;39.40;101690.16;5154604;27;45331;-71
2022/04/10 09:02:05;;;;;;;;;2.50;1.00;;;;;11.75;39.71;101681.34;5173218;27;45099;-74
2022/04/10 09:04:31;;;;;;;;;9.25;9.25;;;;;11.68;39.63;101643.56;5172366;27;45444;-69
2022/04/10 09:07:05;;;;;;;;;12.00;7.75;;;;;12.03;39.62;101676.06;5171873;27;45454;-73
2022/04/10 09:09:31;;;;;;;;;6.75;5.25;;;;;12.05;38.30;101663.66;5169589;27;45155;-70
2022/04/10 09:11:58;;;;;;;;;8.75;6.00;;;;;12.05;37.94;101655.63;5175029;27;45068;-74
2022/04/10 09:14:25;;;;;;;;;10.00;8.50;;;;;12.15;37.88;101668.50;5174220;27;45635;-71
2022/04/10 09:17:20;;;;;;;;;2.00;1.00;;;;;12.25;36.35;101675.97;5174426;27;45105;-71
2022/04/10 09:19:51;;;;;;;;;12.25;8.75;;;;;12.14;37.77;101643.47;5174053;27;45541;-71
2022/04/10 09:22:21;;;;;;;;;7.50;6.50;;;;;11.87;37.90;101564.81;5175161;27;45024;-71
2022/04/10 09:25:13;;;;;;;;;9.00;9.00;;;;;12.59;37.14;101674.44;5173978;27;46429;-73
2022/04/10 09:27:43;;;;;;;;;10.00;8.50;;;;;12.69;37.29;101676.56;5161846;27;45487;-72
2022/04/10 09:30:11;;;;;;;;;9.25;7.50;;;;;12.75;36.61;101656.16;5172288;27;45666;-71
2022/04/10 09:32:39;;;;;;;;;10.00;9.00;;;;;12.97;36.02;101674.78;5162713;27;45457;-71
2022/04/10 09:35:06;;;;;;;;;10.00;8.50;;;;;13.04;36.08;101671.41;5154525;27;47688;-69
2022/04/10 09:37:44;;;;;;;;;9.50;6.00;;;;;12.90;36.61;101662.00;5169261;27;45363;-71
2022/04/10 09:40:19;;;;;;;;;13.75;10.50;;;;;12.97;36.26;101673.84;5159878;27;45350;-73
2022/04/10 09:42:44;;;;;;;;;12.75;9.75;;;;;12.93;36.00;101647.78;5174730;27;45226;-72
2022/04/10 09:45:30;;;;;;;;;11.00;8.00;;;;;13.18;35.39;101676.28;5155047;27;50647;-73
2022/04/10 09:47:56;;;;;;;;;7.75;7.25;;;;;12.98;35.65;101657.78;5173973;27;45227;-71
2022/04/10 09:50:32;;;;;;;;;15.75;9.25;;;;;13.13;35.88;101677.91;5173778;27;45207;-70
2022/04/10 09:53:05;;;;;;;;;10.00;10.00;;;;;12.97;36.94;101641.66;5171374;27;45309;-70
2022/04/10 09:55:38;;;;;;;;;10.50;9.25;;;;;13.19;35.59;101678.13;5170495;27;45372;-69
2022/04/10 09:58:10;;;;;;;;;7.00;6.50;;;;;13.05;35.97;101635.69;5174916;27;45550;-70
2022/04/10 10:00:38;;;;;;;;;8.75;8.25;;;;;13.40;35.80;101660.00;5174118;27;45332;-69
2022/04/10 10:03:05;;;;;;;;;9.75;9.25;;;;;13.19;34.99;101609.25;5155623;27;45398;-73
2022/04/10 10:05:31;;;;;;;;;9.75;7.75;;;;;13.52;35.06;101646.03;5174355;27;45599;-70
2022/04/10 10:07:58;;;;;;;;;7.50;6.00;;;;;13.72;34.70;101656.41;5176477;27;45142;-71
2022/04/10 10:10:26;;;;;;;;;9.00;7.75;;;;;13.71;34.67;101655.53;5177665;27;45075;-72
2022/04/10 10:12:52;;;;;;;;;10.00;7.25;;;;;13.73;34.78;101643.03;5175080;27;45346;-68
2022/04/10 10:15:19;;;;;;;;;10.00;6.50;;;;;13.65;33.95;101612.38;5174374;27;45516;-70
2022/04/10 10:17:45;;;;;;;;;9.00;6.00;;;;;13.96;33.96;101648.13;5173653;27;45323;-71
2022/04/10 10:20:11;;;;;;;;;6.50;6.50;;;;;13.68;33.81;101584.69;5176419;27;45011;-71
2022/04/10 10:22:36;;;;;;;;;4.25;4.25;;;;;14.02;33.66;101642.91;5177585;27;45527;-70
2022/04/10 10:25:15;;;;;;;;;8.50;6.00;;;;;13.95;33.29;101643.63;5177577;27;48309;-68
2022/04/10 10:28:13;;;;;;;;;7.75;7.00;;;;;13.95;33.67;101644.53;5174835;27;45119;-73
2022/04/10 10:31:05;;;;;;;;;5.25;3.75;;;;;14.05;33.25;101644.78;5176259;27;45105;-72
2022/04/10 10:33:31;;;;;;;;;6.75;5.75;;;;;13.90;33.07;101603.19;5175887;27;45068;-73
2022/04/10 10:35:59;;;;;;;;;6.00;6.00;;;;;13.96;33.66;101611.44;5174515;27;46015;-73
2022/04/10 10:38:26;;;;;;;;;6.00;5.25;;;;;13.66;32.77;101552.44;5176404;27;45151;-73
2022/04/10 10:41:08;;;;;;;;;8.00;6.25;;;;;14.05;33.30;101624.19;5175677;27;45323;-72
2022/04/10 10:43:33;;;;;;;;;6.50;6.25;;;;;14.07;33.06;101625.13;5176704;27;45151;-71
2022/04/10 10:45:59;;;;;;;;;8.50;8.50;;;;;14.04;33.44;101597.28;5175026;27;45565;-71
2022/04/10 10:48:38;;;;;;;;;5.75;5.75;;;;;14.28;33.39;101615.81;5172985;27;45160;-70
2022/04/10 10:51:10;;;;;;;;;6.00;5.75;;;;;14.37;32.67;101622.31;5173491;27;44958;-69
2022/04/10 10:53:57;;;;;;;;;8.25;8.00;;;;;14.34;33.06;101602.53;5154009;27;45306;-73
2022/04/10 10:56:36;;;;;;;;;10.25;7.75;;;;;14.35;32.67;101613.31;5173700;27;45667;-72
2022/04/10 10:59:21;;;;;;;;;6.75;6.75;;;;;14.19;32.79;101598.59;5174020;27;45501;-71
2022/04/10 11:02:08;;;;;;;;;7.50;7.50;;;;;14.04;32.64;101574.03;5174204;27;45178;-72
2022/04/10 11:04:55;;;;;;;;;10.25;8.75;;;;;14.21;33.05;101613.84;5173660;27;45073;-72
2022/04/10 11:07:24;;;;;;;;;11.00;7.00;;;;;14.12;32.74;101598.38;5173370;27;45144;-73
2022/04/10 11:10:05;;;;;;;;;8.00;8.00;;;;;13.90;31.43;101573.66;5173527;27;45280;-71
2022/04/10 11:12:50;;;;;;;;;7.00;6.00;;;;;14.02;32.85;101591.84;5172720;27;45222;-70
2022/04/10 11:15:21;;;;;;;;;8.00;8.00;;;;;14.09;33.36;101582.16;5175090;27;45116;-73
2022/04/10 11:17:47;;;;;;;;;9.50;8.25;;;;;14.15;33.19;101593.09;5174072;27;46165;-73
2022/04/10 11:20:15;;;;;;;;;7.75;7.50;;;;;14.23;32.22;101588.81;5174811;27;45134;-72
2022/04/10 11:22:52;;;;;;;;;8.75;7.25;;;;;14.26;32.47;101571.88;5173791;27;45182;-73
2022/04/10 11:25:31;;;;;;;;;10.25;7.00;;;;;14.45;31.98;101583.94;5173576;27;45472;-73